sensor_id;sensor_type;location;lat;lon;timestamp;temperature;humidity
74359;DHT22;62792;46.236;6.040;2022-11-20T00:01:31;22.90;50.60
74359;DHT22;62792;46.236;6.040;2022-11-20T00:06:36;22.70;50.30
74359;DHT22;62792;46.236;6.040;2022-11-20T00:11:40;22.80;50.30
74359;DHT22;62792;46.236;6.040;2022-11-20T00:16:43;22.80;50.40
74359;DHT22;62792;46.236;6.040;2022-11-20T00:21:47;22.60;50.40
74359;DHT22;62792;46.236;6.040;2022-11-20T00:26:52;22.70;50.30
74359;DHT22;62792;46.236;6.040;2022-11-20T00:31:55;22.60;50.30
74359;DHT22;62792;46.236;6.040;2022-11-20T00:36:59;22.60;50.60
74359;DHT22;62792;46.236;6.040;2022-11-20T00:42:02;22.60;50.50
74359;DHT22;62792;46.236;6.040;2022-11-20T00:47:05;22.60;50.30
74359;DHT22;62792;46.236;6.040;2022-11-20T00:52:09;22.60;50.20
74359;DHT22;62792;46.236;6.040;2022-11-20T00:57:12;22.50;50.50
74359;DHT22;62792;46.236;6.040;2022-11-20T01:02:14;22.50;50.40
74359;DHT22;62792;46.236;6.040;2022-11-20T01:07:28;22.40;50.20
74359;DHT22;62792;46.236;6.040;2022-11-20T01:12:31;22.50;50.60
74359;DHT22;62792;46.236;6.040;2022-11-20T01:17:34;22.50;50.40
74359;DHT22;62792;46.236;6.040;2022-11-20T01:22:38;22.40;50.50
74359;DHT22;62792;46.236;6.040;2022-11-20T01:27:41;22.50;50.20
74359;DHT22;62792;46.236;6.040;2022-11-20T01:32:43;22.40;50.40
74359;DHT22;62792;46.236;6.040;2022-11-20T01:37:48;22.50;50.30
74359;DHT22;62792;46.236;6.040;2022-11-20T01:42:55;22.50;50.20
74359;DHT22;62792;46.236;6.040;2022-11-20T01:48:20;22.50;49.90
74359;DHT22;62792;46.236;6.040;2022-11-20T01:53:27;22.50;49.90
74359;DHT22;62792;46.236;6.040;2022-11-20T01:58:32;22.50;50.30
74359;DHT22;62792;46.236;6.040;2022-11-20T02:03:35;22.40;49.90
74359;DHT22;62792;46.236;6.040;2022-11-20T02:08:39;22.40;49.70
74359;DHT22;62792;46.236;6.040;2022-11-20T02:13:42;22.40;49.80
74359;DHT22;62792;46.236;6.040;2022-11-20T02:18:45;22.40;49.80
74359;DHT22;62792;46.236;6.040;2022-11-20T02:23:54;22.30;49.80
74359;DHT22;62792;46.236;6.040;2022-11-20T02:28:58;22.30;50.00
74359;DHT22;62792;46.236;6.040;2022-11-20T02:34:02;22.40;49.50
74359;DHT22;62792;46.236;6.040;2022-11-20T02:39:06;22.30;50.00
74359;DHT22;62792;46.236;6.040;2022-11-20T02:44:09;22.20;49.60
74359;DHT22;62792;46.236;6.040;2022-11-20T02:49:11;22.30;49.80
74359;DHT22;62792;46.236;6.040;2022-11-20T02:54:15;22.20;49.50
74359;DHT22;62792;46.236;6.040;2022-11-20T02:59:18;22.20;49.60
74359;DHT22;62792;46.236;6.040;2022-11-20T03:04:21;22.20;49.60
74359;DHT22;62792;46.236;6.040;2022-11-20T03:09:25;22.20;49.60
74359;DHT22;62792;46.236;6.040;2022-11-20T03:14:28;22.20;49.50
74359;DHT22;62792;46.236;6.040;2022-11-20T03:19:31;22.20;49.50
74359;DHT22;62792;46.236;6.040;2022-11-20T03:24:35;22.20;49.50
74359;DHT22;62792;46.236;6.040;2022-11-20T03:29:38;22.10;49.30
74359;DHT22;62792;46.236;6.040;2022-11-20T03:34:40;22.20;49.30
74359;DHT22;62792;46.236;6.040;2022-11-20T03:39:44;22.20;49.40
74359;DHT22;62792;46.236;6.040;2022-11-20T03:44:47;22.10;49.30
74359;DHT22;62792;46.236;6.040;2022-11-20T03:49:50;22.10;49.20
74359;DHT22;62792;46.236;6.040;2022-11-20T03:54:54;22.10;49.20
74359;DHT22;62792;46.236;6.040;2022-11-20T03:59:57;22.10;48.80
74359;DHT22;62792;46.236;6.040;2022-11-20T04:05:00;22.10;49.00
74359;DHT22;62792;46.236;6.040;2022-11-20T04:10:04;22.10;49.00
74359;DHT22;62792;46.236;6.040;2022-11-20T04:15:07;22.20;49.00
74359;DHT22;62792;46.236;6.040;2022-11-20T04:20:10;22.10;48.70
74359;DHT22;62792;46.236;6.040;2022-11-20T04:25:15;22.10;48.80
74359;DHT22;62792;46.236;6.040;2022-11-20T04:30:18;22.10;48.90
74359;DHT22;62792;46.236;6.040;2022-11-20T04:35:21;22.10;48.80
74359;DHT22;62792;46.236;6.040;2022-11-20T04:40:25;22.10;48.80
74359;DHT22;62792;46.236;6.040;2022-11-20T04:45:28;22.10;48.80
74359;DHT22;62792;46.236;6.040;2022-11-20T04:50:31;22.00;49.00
74359;DHT22;62792;46.236;6.040;2022-11-20T04:55:35;22.10;48.90
74359;DHT22;62792;46.236;6.040;2022-11-20T05:00:37;22.00;48.60
74359;DHT22;62792;46.236;6.040;2022-11-20T05:05:40;22.00;48.80
74359;DHT22;62792;46.236;6.040;2022-11-20T05:10:44;22.00;48.90
74359;DHT22;62792;46.236;6.040;2022-11-20T05:15:47;22.00;48.80
74359;DHT22;62792;46.236;6.040;2022-11-20T05:20:54;22.00;49.00
74359;DHT22;62792;46.236;6.040;2022-11-20T05:25:59;22.00;48.80
74359;DHT22;62792;46.236;6.040;2022-11-20T05:31:05;22.00;48.80
74359;DHT22;62792;46.236;6.040;2022-11-20T05:36:09;21.90;48.50
74359;DHT22;62792;46.236;6.040;2022-11-20T05:41:13;21.90;48.60
74359;DHT22;62792;46.236;6.040;2022-11-20T05:46:17;21.90;48.60
74359;DHT22;62792;46.236;6.040;2022-11-20T05:51:25;22.00;48.50
74359;DHT22;62792;46.236;6.040;2022-11-20T05:56:29;22.00;48.40
74359;DHT22;62792;46.236;6.040;2022-11-20T06:01:32;22.00;48.50
74359;DHT22;62792;46.236;6.040;2022-11-20T06:06:35;21.90;48.70
74359;DHT22;62792;46.236;6.040;2022-11-20T06:11:39;21.90;48.40
74359;DHT22;62792;46.236;6.040;2022-11-20T06:16:41;21.90;48.50
74359;DHT22;62792;46.236;6.040;2022-11-20T06:21:44;21.90;48.50
74359;DHT22;62792;46.236;6.040;2022-11-20T06:26:49;21.90;48.40
74359;DHT22;62792;46.236;6.040;2022-11-20T06:31:53;21.90;48.30
74359;DHT22;62792;46.236;6.040;2022-11-20T06:36:56;21.80;48.50
74359;DHT22;62792;46.236;6.040;2022-11-20T06:42:00;21.80;48.30
74359;DHT22;62792;46.236;6.040;2022-11-20T06:47:03;21.80;48.40
74359;DHT22;62792;46.236;6.040;2022-11-20T06:52:06;21.90;48.20
74359;DHT22;62792;46.236;6.040;2022-11-20T06:57:10;21.90;48.30
74359;DHT22;62792;46.236;6.040;2022-11-20T07:02:13;21.90;48.10
74359;DHT22;62792;46.236;6.040;2022-11-20T07:07:16;21.80;48.30
74359;DHT22;62792;46.236;6.040;2022-11-20T07:12:23;21.80;48.40
74359;DHT22;62792;46.236;6.040;2022-11-20T07:17:26;21.90;48.30
74359;DHT22;62792;46.236;6.040;2022-11-20T07:22:28;21.90;48.30
74359;DHT22;62792;46.236;6.040;2022-11-20T07:27:32;21.80;48.40
74359;DHT22;62792;46.236;6.040;2022-11-20T07:32:35;21.90;48.20
74359;DHT22;62792;46.236;6.040;2022-11-20T07:37:38;21.90;48.00
74359;DHT22;62792;46.236;6.040;2022-11-20T07:42:48;21.80;48.10
74359;DHT22;62792;46.236;6.040;2022-11-20T07:47:51;21.90;48.00
74359;DHT22;62792;46.236;6.040;2022-11-20T07:52:59;21.80;47.90
74359;DHT22;62792;46.236;6.040;2022-11-20T07:58:03;21.90;48.00
74359;DHT22;62792;46.236;6.040;2022-11-20T08:03:06;21.80;48.00
74359;DHT22;62792;46.236;6.040;2022-11-20T08:08:09;21.80;48.10
74359;DHT22;62792;46.236;6.040;2022-11-20T08:13:13;21.80;48.00
74359;DHT22;62792;46.236;6.040;2022-11-20T08:18:33;21.80;48.10
74359;DHT22;62792;46.236;6.040;2022-11-20T08:23:36;21.80;47.90
74359;DHT22;62792;46.236;6.040;2022-11-20T08:28:40;21.80;48.20
74359;DHT22;62792;46.236;6.040;2022-11-20T08:33:43;21.80;48.00
74359;DHT22;62792;46.236;6.040;2022-11-20T08:38:46;21.80;48.10
74359;DHT22;62792;46.236;6.040;2022-11-20T08:43:50;21.90;48.20
74359;DHT22;62792;46.236;6.040;2022-11-20T08:48:53;21.90;48.00
74359;DHT22;62792;46.236;6.040;2022-11-20T08:53:56;21.80;47.80
74359;DHT22;62792;46.236;6.040;2022-11-20T08:59:00;21.80;48.10
74359;DHT22;62792;46.236;6.040;2022-11-20T09:04:23;21.70;48.10
74359;DHT22;62792;46.236;6.040;2022-11-20T09:09:26;21.80;47.70
74359;DHT22;62792;46.236;6.040;2022-11-20T09:14:30;21.90;48.10
74359;DHT22;62792;46.236;6.040;2022-11-20T09:19:33;21.80;47.90
74359;DHT22;62792;46.236;6.040;2022-11-20T09:24:37;21.80;48.20
74359;DHT22;62792;46.236;6.040;2022-11-20T09:29:41;21.90;48.10
74359;DHT22;62792;46.236;6.040;2022-11-20T09:34:43;21.80;47.80
74359;DHT22;62792;46.236;6.040;2022-11-20T09:39:46;21.90;47.80
74359;DHT22;62792;46.236;6.040;2022-11-20T09:44:53;21.80;47.90
74359;DHT22;62792;46.236;6.040;2022-11-20T09:50:02;21.90;48.10
74359;DHT22;62792;46.236;6.040;2022-11-20T09:55:08;21.90;47.80
74359;DHT22;62792;46.236;6.040;2022-11-20T10:00:14;21.90;47.80
74359;DHT22;62792;46.236;6.040;2022-11-20T10:05:18;21.90;47.90
74359;DHT22;62792;46.236;6.040;2022-11-20T10:10:23;22.00;47.70
74359;DHT22;62792;46.236;6.040;2022-11-20T10:15:33;21.90;47.70
74359;DHT22;62792;46.236;6.040;2022-11-20T10:20:41;21.90;47.90
74359;DHT22;62792;46.236;6.040;2022-11-20T10:25:47;21.90;47.70
74359;DHT22;62792;46.236;6.040;2022-11-20T10:30:56;22.00;47.70
74359;DHT22;62792;46.236;6.040;2022-11-20T10:36:03;22.00;47.60
74359;DHT22;62792;46.236;6.040;2022-11-20T10:41:08;22.00;47.70
74359;DHT22;62792;46.236;6.040;2022-11-20T10:46:34;22.00;47.70
74359;DHT22;62792;46.236;6.040;2022-11-20T10:51:40;22.00;47.80
74359;DHT22;62792;46.236;6.040;2022-11-20T10:56:47;22.10;47.50
74359;DHT22;62792;46.236;6.040;2022-11-20T11:01:52;22.00;47.50
74359;DHT22;62792;46.236;6.040;2022-11-20T11:06:56;22.00;47.60
74359;DHT22;62792;46.236;6.040;2022-11-20T11:12:01;22.10;47.60
74359;DHT22;62792;46.236;6.040;2022-11-20T11:17:18;22.00;47.70
74359;DHT22;62792;46.236;6.040;2022-11-20T11:22:22;22.00;47.60
74359;DHT22;62792;46.236;6.040;2022-11-20T11:27:24;22.00;47.60
74359;DHT22;62792;46.236;6.040;2022-11-20T11:32:29;22.10;47.60
74359;DHT22;62792;46.236;6.040;2022-11-20T11:37:32;22.10;47.50
74359;DHT22;62792;46.236;6.040;2022-11-20T11:42:40;22.10;47.80
74359;DHT22;62792;46.236;6.040;2022-11-20T11:47:45;22.00;47.70
74359;DHT22;62792;46.236;6.040;2022-11-20T11:52:57;22.10;47.50
74359;DHT22;62792;46.236;6.040;2022-11-20T11:58:11;22.00;47.50
74359;DHT22;62792;46.236;6.040;2022-11-20T12:03:19;22.00;47.70
74359;DHT22;62792;46.236;6.040;2022-11-20T12:08:23;22.10;47.50
74359;DHT22;62792;46.236;6.040;2022-11-20T12:13:32;22.00;47.60
74359;DHT22;62792;46.236;6.040;2022-11-20T12:18:39;22.10;47.60
74359;DHT22;62792;46.236;6.040;2022-11-20T12:23:44;22.00;47.30
74359;DHT22;62792;46.236;6.040;2022-11-20T12:28:53;22.10;47.20
74359;DHT22;62792;46.236;6.040;2022-11-20T12:34:12;22.10;47.30
74359;DHT22;62792;46.236;6.040;2022-11-20T12:39:21;22.20;47.40
74359;DHT22;62792;46.236;6.040;2022-11-20T12:44:33;22.00;47.40
74359;DHT22;62792;46.236;6.040;2022-11-20T12:49:59;22.10;47.30
74359;DHT22;62792;46.236;6.040;2022-11-20T12:55:16;22.00;47.40
74359;DHT22;62792;46.236;6.040;2022-11-20T13:00:22;22.10;47.40
74359;DHT22;62792;46.236;6.040;2022-11-20T13:05:30;22.10;47.20
74359;DHT22;62792;46.236;6.040;2022-11-20T13:10:35;22.10;47.00
74359;DHT22;62792;46.236;6.040;2022-11-20T13:15:42;22.20;47.00
74359;DHT22;62792;46.236;6.040;2022-11-20T13:20:48;22.10;46.90
74359;DHT22;62792;46.236;6.040;2022-11-20T13:26:02;22.10;47.00
74359;DHT22;62792;46.236;6.040;2022-11-20T13:31:09;22.10;46.90
74359;DHT22;62792;46.236;6.040;2022-11-20T13:36:27;22.20;46.90
74359;DHT22;62792;46.236;6.040;2022-11-20T13:41:30;22.20;46.90
74359;DHT22;62792;46.236;6.040;2022-11-20T13:46:36;22.20;47.10
74359;DHT22;62792;46.236;6.040;2022-11-20T13:51:42;22.30;47.10
74359;DHT22;62792;46.236;6.040;2022-11-20T13:56:48;22.20;47.00
74359;DHT22;62792;46.236;6.040;2022-11-20T14:01:54;22.20;46.80
74359;DHT22;62792;46.236;6.040;2022-11-20T14:06:59;22.10;47.00
74359;DHT22;62792;46.236;6.040;2022-11-20T14:12:03;22.10;46.90
74359;DHT22;62792;46.236;6.040;2022-11-20T14:17:06;22.10;46.80
74359;DHT22;62792;46.236;6.040;2022-11-20T14:22:16;22.10;47.00
74359;DHT22;62792;46.236;6.040;2022-11-20T14:27:20;22.10;46.80
74359;DHT22;62792;46.236;6.040;2022-11-20T14:32:24;22.10;46.80
74359;DHT22;62792;46.236;6.040;2022-11-20T14:37:32;22.10;47.00
74359;DHT22;62792;46.236;6.040;2022-11-20T14:42:36;22.00;46.60
74359;DHT22;62792;46.236;6.040;2022-11-20T14:47:39;22.10;46.90
74359;DHT22;62792;46.236;6.040;2022-11-20T14:52:50;22.10;46.80
74359;DHT22;62792;46.236;6.040;2022-11-20T14:57:57;22.00;46.80
74359;DHT22;62792;46.236;6.040;2022-11-20T15:03:00;22.10;46.90
74359;DHT22;62792;46.236;6.040;2022-11-20T15:08:08;22.10;46.90
74359;DHT22;62792;46.236;6.040;2022-11-20T15:13:12;22.00;46.80
74359;DHT22;62792;46.236;6.040;2022-11-20T15:18:16;22.10;46.80
74359;DHT22;62792;46.236;6.040;2022-11-20T15:23:20;22.00;46.90
74359;DHT22;62792;46.236;6.040;2022-11-20T15:28:26;22.10;46.90
74359;DHT22;62792;46.236;6.040;2022-11-20T15:33:30;22.00;46.80
74359;DHT22;62792;46.236;6.040;2022-11-20T15:38:34;21.90;46.60
74359;DHT22;62792;46.236;6.040;2022-11-20T15:43:37;22.10;46.70
74359;DHT22;62792;46.236;6.040;2022-11-20T15:48:41;21.90;46.80
74359;DHT22;62792;46.236;6.040;2022-11-20T15:53:50;21.90;46.80
74359;DHT22;62792;46.236;6.040;2022-11-20T15:58:52;21.90;46.90
74359;DHT22;62792;46.236;6.040;2022-11-20T16:03:55;21.90;46.70
74359;DHT22;62792;46.236;6.040;2022-11-20T16:09:00;21.90;46.80
74359;DHT22;62792;46.236;6.040;2022-11-20T16:14:02;21.80;46.70
74359;DHT22;62792;46.236;6.040;2022-11-20T16:19:23;21.80;46.80
74359;DHT22;62792;46.236;6.040;2022-11-20T16:24:27;21.80;46.80
74359;DHT22;62792;46.236;6.040;2022-11-20T16:29:30;21.70;46.60
74359;DHT22;62792;46.236;6.040;2022-11-20T16:34:33;21.70;46.60
74359;DHT22;62792;46.236;6.040;2022-11-20T16:39:37;21.70;46.70
74359;DHT22;62792;46.236;6.040;2022-11-20T16:44:40;21.70;46.80
74359;DHT22;62792;46.236;6.040;2022-11-20T16:49:42;21.70;46.50
74359;DHT22;62792;46.236;6.040;2022-11-20T16:54:47;21.70;46.90
74359;DHT22;62792;46.236;6.040;2022-11-20T16:59:49;21.60;46.50
74359;DHT22;62792;46.236;6.040;2022-11-20T17:04:52;21.60;46.60
74359;DHT22;62792;46.236;6.040;2022-11-20T17:09:56;21.70;46.60
74359;DHT22;62792;46.236;6.040;2022-11-20T17:14:59;21.70;46.80
74359;DHT22;62792;46.236;6.040;2022-11-20T17:20:02;21.60;46.80
74359;DHT22;62792;46.236;6.040;2022-11-20T17:25:07;21.60;46.80
74359;DHT22;62792;46.236;6.040;2022-11-20T17:30:09;21.60;46.70
74359;DHT22;62792;46.236;6.040;2022-11-20T17:35:13;21.60;46.50
74359;DHT22;62792;46.236;6.040;2022-11-20T17:40:18;21.60;46.40
74359;DHT22;62792;46.236;6.040;2022-11-20T17:45:27;21.50;46.50
74359;DHT22;62792;46.236;6.040;2022-11-20T17:50:30;21.50;46.40
74359;DHT22;62792;46.236;6.040;2022-11-20T17:55:34;21.50;46.30
74359;DHT22;62792;46.236;6.040;2022-11-20T18:01:02;21.50;46.00
74359;DHT22;62792;46.236;6.040;2022-11-20T18:06:08;21.40;46.20
74359;DHT22;62792;46.236;6.040;2022-11-20T18:11:13;21.40;46.10
74359;DHT22;62792;46.236;6.040;2022-11-20T18:16:16;21.50;46.00
74359;DHT22;62792;46.236;6.040;2022-11-20T18:21:19;21.40;46.10
74359;DHT22;62792;46.236;6.040;2022-11-20T18:26:23;21.40;46.00
74359;DHT22;62792;46.236;6.040;2022-11-20T18:31:26;21.40;46.10
74359;DHT22;62792;46.236;6.040;2022-11-20T18:36:30;21.40;46.00
74359;DHT22;62792;46.236;6.040;2022-11-20T18:41:35;21.40;46.30
74359;DHT22;62792;46.236;6.040;2022-11-20T18:46:54;21.40;46.20
74359;DHT22;62792;46.236;6.040;2022-11-20T18:51:57;21.30;46.40
74359;DHT22;62792;46.236;6.040;2022-11-20T18:57:02;21.30;46.20
74359;DHT22;62792;46.236;6.040;2022-11-20T19:02:04;21.40;46.30
74359;DHT22;62792;46.236;6.040;2022-11-20T19:07:08;21.40;46.30
74359;DHT22;62792;46.236;6.040;2022-11-20T19:12:13;21.30;46.20
74359;DHT22;62792;46.236;6.040;2022-11-20T19:17:16;21.30;46.30
74359;DHT22;62792;46.236;6.040;2022-11-20T19:22:19;21.20;46.60
74359;DHT22;62792;46.236;6.040;2022-11-20T19:27:24;21.30;46.50
74359;DHT22;62792;46.236;6.040;2022-11-20T19:32:26;21.20;46.40
74359;DHT22;62792;46.236;6.040;2022-11-20T19:37:31;21.30;46.30
74359;DHT22;62792;46.236;6.040;2022-11-20T19:42:35;21.20;46.50
74359;DHT22;62792;46.236;6.040;2022-11-20T19:47:37;21.10;46.50
74359;DHT22;62792;46.236;6.040;2022-11-20T19:53:00;21.20;46.70
74359;DHT22;62792;46.236;6.040;2022-11-20T19:58:05;21.20;46.60
74359;DHT22;62792;46.236;6.040;2022-11-20T20:03:08;21.20;46.70
74359;DHT22;62792;46.236;6.040;2022-11-20T20:08:11;21.10;46.90
74359;DHT22;62792;46.236;6.040;2022-11-20T20:13:19;21.10;46.50
74359;DHT22;62792;46.236;6.040;2022-11-20T20:18:21;21.10;46.80
74359;DHT22;62792;46.236;6.040;2022-11-20T20:23:24;21.10;46.80
74359;DHT22;62792;46.236;6.040;2022-11-20T20:28:28;21.10;46.90
74359;DHT22;62792;46.236;6.040;2022-11-20T20:33:31;21.10;46.70
74359;DHT22;62792;46.236;6.040;2022-11-20T20:38:34;21.10;47.00
74359;DHT22;62792;46.236;6.040;2022-11-20T20:43:40;21.00;46.80
74359;DHT22;62792;46.236;6.040;2022-11-20T20:49:00;21.10;46.90
74359;DHT22;62792;46.236;6.040;2022-11-20T20:54:03;21.10;47.10
74359;DHT22;62792;46.236;6.040;2022-11-20T20:59:07;21.00;47.00
74359;DHT22;62792;46.236;6.040;2022-11-20T21:04:10;21.00;47.00
74359;DHT22;62792;46.236;6.040;2022-11-20T21:09:13;21.00;47.10
74359;DHT22;62792;46.236;6.040;2022-11-20T21:14:17;21.10;47.00
74359;DHT22;62792;46.236;6.040;2022-11-20T21:19:21;21.00;47.00
74359;DHT22;62792;46.236;6.040;2022-11-20T21:24:24;21.00;46.90
74359;DHT22;62792;46.236;6.040;2022-11-20T21:29:28;21.00;47.00
74359;DHT22;62792;46.236;6.040;2022-11-20T21:34:31;21.00;47.10
74359;DHT22;62792;46.236;6.040;2022-11-20T21:39:34;21.00;47.00
74359;DHT22;62792;46.236;6.040;2022-11-20T21:44:52;21.00;47.30
74359;DHT22;62792;46.236;6.040;2022-11-20T21:49:55;21.00;47.20
74359;DHT22;62792;46.236;6.040;2022-11-20T21:54:57;21.00;47.20
74359;DHT22;62792;46.236;6.040;2022-11-20T22:00:02;20.90;47.30
74359;DHT22;62792;46.236;6.040;2022-11-20T22:05:07;20.90;47.50
74359;DHT22;62792;46.236;6.040;2022-11-20T22:10:10;20.90;47.30
74359;DHT22;62792;46.236;6.040;2022-11-20T22:15:20;21.00;47.00
74359;DHT22;62792;46.236;6.040;2022-11-20T22:20:43;21.00;47.30
74359;DHT22;62792;46.236;6.040;2022-11-20T22:25:45;20.90;47.80
74359;DHT22;62792;46.236;6.040;2022-11-20T22:30:49;20.90;47.20
74359;DHT22;62792;46.236;6.040;2022-11-20T22:35:53;20.90;47.30
74359;DHT22;62792;46.236;6.040;2022-11-20T22:41:01;20.90;47.90
74359;DHT22;62792;46.236;6.040;2022-11-20T22:46:06;20.90;47.30
74359;DHT22;62792;46.236;6.040;2022-11-20T22:51:10;20.90;47.90
74359;DHT22;62792;46.236;6.040;2022-11-20T22:56:14;20.90;47.80
74359;DHT22;62792;46.236;6.040;2022-11-20T23:01:19;20.90;47.80
74359;DHT22;62792;46.236;6.040;2022-11-20T23:06:23;20.90;47.80
74359;DHT22;62792;46.236;6.040;2022-11-20T23:11:27;20.90;47.70
74359;DHT22;62792;46.236;6.040;2022-11-20T23:16:31;20.80;47.80
74359;DHT22;62792;46.236;6.040;2022-11-20T23:21:34;20.80;47.70
74359;DHT22;62792;46.236;6.040;2022-11-20T23:26:38;20.90;47.90
74359;DHT22;62792;46.236;6.040;2022-11-20T23:31:42;20.90;47.90
74359;DHT22;62792;46.236;6.040;2022-11-20T23:36:45;20.90;47.80
74359;DHT22;62792;46.236;6.040;2022-11-20T23:41:48;20.90;47.80
74359;DHT22;62792;46.236;6.040;2022-11-20T23:46:52;20.80;47.90
74359;DHT22;62792;46.236;6.040;2022-11-20T23:51:55;20.90;47.80
74359;DHT22;62792;46.236;6.040;2022-11-20T23:56:58;20.80;47.90
